Time;durP1;ratioP1;P1;durP2;ratioP2;P2;SDS_P1;SDS_P2;PMS_P1;PMS_P2;Temp;Humidity;BMP_temperature;BMP_pressure;BME280_temperature;BME280_humidity;BME280_pressure;Samples;Min_cycle;Max_cycle;Signal;HPM_P1;HPM_P2
2023/09/13 00:00:52;;;;;;;10.75;7.10;;;20.50;99.90;;;;;;5094444;28;20472;-71
2023/09/13 00:03:18;;;;;;;8.50;6.63;;;20.60;99.90;;;;;;5094431;28;20024;-70
2023/09/13 00:05:46;;;;;;;9.95;6.78;;;20.50;99.90;;;;;;5094358;28;20016;-70
2023/09/13 00:08:11;;;;;;;13.98;6.22;;;20.40;99.90;;;;;;5094588;28;20040;-70
2023/09/13 00:10:37;;;;;;;8.90;5.63;;;20.40;99.90;;;;;;5094524;28;20089;-70
2023/09/13 00:13:03;;;;;;;10.35;5.72;;;20.40;99.90;;;;;;5094155;28;20442;-69
2023/09/13 00:15:28;;;;;;;8.55;5.90;;;20.30;99.90;;;;;;5094237;28;20116;-70
2023/09/13 00:17:54;;;;;;;8.07;5.93;;;20.30;99.90;;;;;;5093972;28;20107;-70
2023/09/13 00:20:20;;;;;;;8.30;5.68;;;20.30;99.90;;;;;;5094101;28;20139;-70
2023/09/13 00:22:45;;;;;;;8.65;5.85;;;20.30;99.90;;;;;;5093949;28;20024;-70
2023/09/13 00:25:11;;;;;;;10.25;6.13;;;20.20;99.90;;;;;;5093924;28;20028;-70
2023/09/13 00:27:37;;;;;;;12.02;6.95;;;20.20;99.90;;;;;;5094059;28;20028;-69
2023/09/13 00:30:03;;;;;;;10.82;6.10;;;20.20;99.90;;;;;;5094242;28;20028;-70
2023/09/13 00:32:28;;;;;;;9.57;6.20;;;20.20;99.90;;;;;;5093808;28;20039;-69
2023/09/13 00:34:54;;;;;;;8.73;5.85;;;20.20;99.90;;;;;;5093750;28;20354;-69
2023/09/13 00:37:20;;;;;;;10.93;6.15;;;20.20;99.90;;;;;;5092657;28;20078;-69
2023/09/13 00:39:45;;;;;;;7.55;5.93;;;20.20;99.90;;;;;;5093775;28;20059;-70
2023/09/13 00:42:11;;;;;;;7.05;5.45;;;20.20;99.90;;;;;;5092655;28;20035;-70
2023/09/13 00:44:37;;;;;;;11.07;5.78;;;20.10;99.90;;;;;;5092608;28;20032;-68
2023/09/13 00:47:02;;;;;;;12.25;5.75;;;20.10;99.90;;;;;;5093562;28;20040;-70
2023/09/13 00:49:28;;;;;;;8.82;6.13;;;20.20;99.90;;;;;;5093513;28;20104;-70
2023/09/13 00:51:57;;;;;;;9.50;5.82;;;20.20;99.90;;;;;;5093616;28;20035;-70
2023/09/13 00:54:23;;;;;;;7.40;5.57;;;20.20;99.90;;;;;;5093410;28;20031;-70
2023/09/13 00:56:49;;;;;;;7.55;5.20;;;20.20;99.90;;;;;;5093409;28;20078;-69
2023/09/13 00:59:14;;;;;;;8.32;5.40;;;20.10;99.90;;;;;;5093377;28;20494;-69
2023/09/13 01:01:40;;;;;;;7.75;4.95;;;20.10;99.90;;;;;;5093160;28;20389;-69
2023/09/13 01:04:06;;;;;;;7.38;5.50;;;20.10;99.90;;;;;;5092225;28;20393;-69
2023/09/13 01:06:33;;;;;;;5.82;4.80;;;20.10;99.90;;;;;;5092783;28;20024;-69
2023/09/13 01:08:59;;;;;;;7.45;4.90;;;20.00;99.90;;;;;;5093174;28;20048;-69
2023/09/13 01:11:26;;;;;;;9.98;5.38;;;20.10;99.90;;;;;;5093597;28;20027;-70
2023/09/13 01:13:52;;;;;;;8.88;5.03;;;20.00;99.90;;;;;;5092901;28;20393;-70
2023/09/13 01:16:54;;;;;;;12.40;5.80;;;20.00;99.90;;;;;;5092017;28;20034;-70
2023/09/13 01:19:28;;;;;;;8.73;5.88;;;20.10;99.90;;;;;;5093212;28;20384;-70
2023/09/13 01:22:21;;;;;;;7.68;4.85;;;20.10;99.90;;;;;;5092629;28;20027;-70
2023/09/13 01:24:50;;;;;;;9.50;4.95;;;20.10;99.90;;;;;;5092431;28;20107;-70
2023/09/13 01:27:53;;;;;;;8.98;5.20;;;20.10;99.90;;;;;;5092796;28;20107;-70
2023/09/13 01:30:20;;;;;;;7.03;5.20;;;20.10;99.90;;;;;;5069537;28;20346;-71
2023/09/13 01:32:52;;;;;;;7.05;5.13;;;20.10;99.90;;;;;;5092650;28;20111;-70
2023/09/13 01:35:17;;;;;;;7.15;5.15;;;20.10;99.90;;;;;;5088280;28;20028;-71
2023/09/13 01:37:43;;;;;;;9.73;5.28;;;20.10;99.90;;;;;;5072628;28;20351;-70
2023/09/13 01:40:09;;;;;;;8.85;5.05;;;20.20;99.90;;;;;;5072263;28;20435;-69
2023/09/13 01:42:40;;;;;;;7.95;5.57;;;20.10;99.90;;;;;;5072076;28;20490;-69
2023/09/13 01:45:09;;;;;;;7.72;5.45;;;20.20;99.90;;;;;;5072102;28;20024;-69
2023/09/13 01:47:35;;;;;;;8.50;5.55;;;20.10;99.90;;;;;;5071792;28;20059;-69
2023/09/13 01:50:02;;;;;;;8.32;5.47;;;20.10;99.90;;;;;;5072063;28;20113;-69
2023/09/13 01:52:28;;;;;;;7.00;4.90;;;20.10;99.90;;;;;;5072068;28;20024;-70
2023/09/13 01:54:54;;;;;;;8.50;5.47;;;20.10;99.90;;;;;;5071990;28;20056;-70
2023/09/13 01:57:20;;;;;;;9.30;5.40;;;20.00;99.90;;;;;;5072081;28;20488;-69
2023/09/13 01:59:45;;;;;;;7.82;5.50;;;20.00;99.90;;;;;;5072132;28;20068;-69
2023/09/13 02:02:11;;;;;;;7.50;5.38;;;20.00;99.90;;;;;;5071799;28;20032;-69
2023/09/13 02:04:36;;;;;;;7.28;5.70;;;20.00;99.90;;;;;;5072144;28;20024;-68
2023/09/13 02:07:03;;;;;;;8.50;5.57;;;20.00;99.90;;;;;;5071556;28;20048;-69
2023/09/13 02:09:28;;;;;;;10.73;6.43;;;20.00;99.90;;;;;;5071902;28;20024;-70
2023/09/13 02:11:54;;;;;;;7.68;5.82;;;20.00;99.90;;;;;;5071800;28;20366;-69
2023/09/13 02:14:19;;;;;;;10.40;5.80;;;20.00;99.90;;;;;;5071655;28;20029;-70
2023/09/13 02:16:45;;;;;;;8.23;5.93;;;19.90;99.90;;;;;;5072030;28;20024;-70
2023/09/13 02:19:11;;;;;;;7.43;5.75;;;20.00;99.90;;;;;;5071499;28;20025;-70
2023/09/13 02:21:36;;;;;;;8.45;6.07;;;20.00;99.90;;;;;;5071720;28;20074;-69
2023/09/13 02:24:02;;;;;;;7.85;5.80;;;20.00;99.90;;;;;;5071851;28;20036;-69
2023/09/13 02:26:28;;;;;;;9.13;6.20;;;20.00;99.90;;;;;;5071743;28;20032;-70
2023/09/13 02:28:53;;;;;;;11.15;6.32;;;20.00;99.90;;;;;;5071645;28;20024;-71
2023/09/13 02:31:22;;;;;;;8.60;6.13;;;19.90;99.90;;;;;;5071552;28;20031;-70
2023/09/13 02:33:48;;;;;;;13.90;5.97;;;19.90;99.90;;;;;;5071487;28;20111;-70
2023/09/13 02:36:14;;;;;;;8.82;6.50;;;20.00;99.90;;;;;;5071830;28;20095;-71
2023/09/13 02:38:39;;;;;;;9.88;5.72;;;19.90;99.90;;;;;;5071545;28;20028;-69
2023/09/13 02:41:05;;;;;;;9.32;6.53;;;19.90;99.90;;;;;;5071670;28;20032;-69
2023/09/13 02:43:31;;;;;;;10.30;6.22;;;19.90;99.90;;;;;;5071411;28;20043;-70
2023/09/13 02:45:56;;;;;;;10.65;7.25;;;19.80;99.90;;;;;;5071677;28;20027;-70
2023/09/13 02:48:22;;;;;;;10.15;6.80;;;19.80;99.90;;;;;;5071334;28;20029;-70
2023/09/13 02:50:48;;;;;;;11.27;6.82;;;19.80;99.90;;;;;;5071723;28;20029;-69
2023/09/13 02:53:13;;;;;;;11.43;6.32;;;19.80;99.90;;;;;;5071315;28;20021;-70
2023/09/13 02:55:39;;;;;;;7.93;6.20;;;19.90;99.90;;;;;;5071257;28;20028;-70
2023/09/13 02:58:05;;;;;;;9.32;5.75;;;19.90;99.90;;;;;;5071654;28;20024;-69
2023/09/13 03:00:31;;;;;;;9.77;6.43;;;19.90;99.90;;;;;;5073177;28;20017;-69
2023/09/13 03:02:58;;;;;;;8.73;6.63;;;19.90;99.90;;;;;;5075377;28;20450;-70
2023/09/13 03:05:23;;;;;;;8.63;6.82;;;20.00;99.90;;;;;;5075523;28;20020;-70
2023/09/13 03:07:49;;;;;;;12.98;7.40;;;20.00;99.90;;;;;;5074143;28;20114;-70
2023/09/13 03:10:15;;;;;;;10.13;7.45;;;20.00;99.90;;;;;;5074227;28;20085;-69
2023/09/13 03:12:41;;;;;;;9.55;7.22;;;20.00;99.90;;;;;;5075100;28;20028;-70
2023/09/13 03:15:07;;;;;;;11.85;7.75;;;20.00;99.90;;;;;;5075068;28;20099;-70
2023/09/13 03:17:32;;;;;;;8.23;6.60;;;19.90;99.90;;;;;;5074905;28;20438;-69
2023/09/13 03:19:58;;;;;;;9.95;7.22;;;19.90;99.90;;;;;;5074873;28;20112;-70
2023/09/13 03:22:24;;;;;;;10.18;7.30;;;19.90;99.90;;;;;;5073954;28;20214;-70
2023/09/13 03:24:50;;;;;;;12.25;7.18;;;19.90;99.90;;;;;;5075098;28;20020;-71
2023/09/13 03:27:16;;;;;;;11.30;7.97;;;19.90;99.90;;;;;;5074942;28;20062;-70
2023/09/13 03:29:41;;;;;;;11.07;8.10;;;19.90;99.90;;;;;;5073746;28;20021;-71
2023/09/13 03:32:07;;;;;;;15.07;9.00;;;19.90;99.90;;;;;;5074853;28;20393;-70
2023/09/13 03:34:33;;;;;;;14.88;10.40;;;19.90;99.90;;;;;;5074617;28;20020;-70
2023/09/13 03:36:59;;;;;;;14.95;10.00;;;19.90;99.90;;;;;;5074870;28;20028;-70
2023/09/13 03:39:28;;;;;;;16.15;10.48;;;19.90;99.90;;;;;;5074589;28;20048;-70
2023/09/13 03:41:53;;;;;;;16.40;10.80;;;19.90;99.90;;;;;;5074524;28;20020;-70
2023/09/13 03:44:19;;;;;;;15.38;10.30;;;19.90;99.90;;;;;;5074495;28;20427;-69
2023/09/13 03:46:45;;;;;;;15.07;10.02;;;19.90;99.90;;;;;;5074477;28;20427;-70
2023/09/13 03:49:10;;;;;;;15.38;10.55;;;19.90;99.90;;;;;;5074335;28;20028;-70
2023/09/13 03:51:36;;;;;;;13.68;10.48;;;19.90;99.90;;;;;;5074355;28;20032;-70
2023/09/13 03:54:02;;;;;;;17.38;11.00;;;19.80;99.90;;;;;;5074471;28;20024;-70
2023/09/13 03:56:27;;;;;;;19.20;12.45;;;19.80;99.90;;;;;;5073422;28;20028;-69
2023/09/13 03:58:54;;;;;;;21.23;12.43;;;19.90;99.90;;;;;;5074292;28;20523;-70
2023/09/13 04:01:19;;;;;;;17.70;13.25;;;19.90;99.90;;;;;;5074091;28;20020;-70
2023/09/13 04:03:45;;;;;;;17.77;12.88;;;19.80;99.90;;;;;;5074082;28;20081;-70
2023/09/13 04:06:11;;;;;;;16.60;12.23;;;19.80;99.90;;;;;;5074040;28;20418;-70
2023/09/13 04:08:36;;;;;;;20.75;12.60;;;19.80;99.90;;;;;;5073883;28;20055;-70
2023/09/13 04:11:02;;;;;;;22.52;13.95;;;19.80;99.90;;;;;;5073022;28;20029;-69
2023/09/13 04:13:28;;;;;;;26.42;15.10;;;19.70;99.90;;;;;;5073744;28;20039;-70
2023/09/13 04:15:53;;;;;;;25.75;16.67;;;19.70;99.90;;;;;;5074146;28;20027;-70
2023/09/13 04:18:19;;;;;;;27.27;16.77;;;19.70;99.90;;;;;;5073764;28;20052;-69
2023/09/13 04:20:46;;;;;;;27.55;16.38;;;19.70;99.90;;;;;;5073851;28;20088;-69
2023/09/13 04:23:12;;;;;;;27.23;16.92;;;19.80;99.90;;;;;;5073849;28;20013;-69
2023/09/13 04:25:38;;;;;;;23.83;15.88;;;19.80;99.90;;;;;;5074000;28;20098;-69
2023/09/13 04:28:04;;;;;;;27.05;16.35;;;19.70;99.90;;;;;;5073706;28;20024;-69
2023/09/13 04:30:31;;;;;;;30.92;16.20;;;19.70;99.90;;;;;;5073912;28;20029;-70
2023/09/13 04:33:02;;;;;;;28.38;16.77;;;19.70;99.90;;;;;;5073820;28;20021;-70
2023/09/13 04:35:27;;;;;;;30.55;17.65;;;19.70;99.90;;;;;;5073429;28;20103;-71
2023/09/13 04:37:54;;;;;;;25.88;17.55;;;19.70;99.90;;;;;;5073424;28;20116;-69
2023/09/13 04:40:20;;;;;;;26.98;17.60;;;19.70;99.90;;;;;;5072401;28;20435;-70
2023/09/13 04:42:55;;;;;;;28.30;17.20;;;19.70;99.90;;;;;;5073857;28;20463;-70
2023/09/13 04:45:21;;;;;;;26.73;17.42;;;19.60;99.90;;;;;;5073333;28;20032;-69
2023/09/13 04:47:47;;;;;;;27.75;17.38;;;19.70;99.90;;;;;;5073577;28;20056;-70
2023/09/13 04:50:13;;;;;;;26.67;17.10;;;19.70;99.90;;;;;;5073530;28;20075;-71
2023/09/13 04:52:38;;;;;;;25.60;17.38;;;19.70;99.90;;;;;;5073087;28;20032;-70
2023/09/13 04:55:05;;;;;;;26.70;16.90;;;19.70;99.90;;;;;;5073123;28;20035;-70
2023/09/13 04:57:31;;;;;;;29.63;17.50;;;19.80;99.90;;;;;;5073040;28;20454;-70
2023/09/13 04:59:57;;;;;;;28.30;17.58;;;19.80;99.90;;;;;;5073082;28;20032;-70
2023/09/13 05:02:22;;;;;;;26.15;16.20;;;19.80;99.90;;;;;;5072924;28;20081;-70
2023/09/13 05:04:48;;;;;;;23.90;16.10;;;19.80;99.90;;;;;;5073378;28;20081;-69
2023/09/13 05:07:13;;;;;;;25.50;15.40;;;19.80;99.90;;;;;;5072748;28;20113;-70
2023/09/13 05:09:40;;;;;;;22.48;15.68;;;19.90;99.90;;;;;;5072794;28;20040;-70
2023/09/13 05:12:06;;;;;;;20.80;12.98;;;19.90;99.90;;;;;;5073042;28;20111;-70
2023/09/13 05:14:33;;;;;;;19.48;13.15;;;19.80;99.90;;;;;;5072663;28;20025;-70
2023/09/13 05:16:59;;;;;;;21.85;13.38;;;19.80;99.90;;;;;;5072014;28;20095;-70
2023/09/13 05:19:25;;;;;;;19.42;12.80;;;19.80;99.90;;;;;;5072840;28;20513;-71
2023/09/13 05:21:51;;;;;;;21.02;12.75;;;19.80;99.90;;;;;;5072378;28;20111;-71
2023/09/13 05:24:17;;;;;;;16.98;12.55;;;19.80;99.90;;;;;;5072089;28;20024;-70
2023/09/13 05:26:43;;;;;;;15.93;10.75;;;19.80;99.90;;;;;;5072454;28;20028;-71
2023/09/13 05:29:09;;;;;;;18.50;11.38;;;19.80;99.90;;;;;;5072301;28;20043;-71
2023/09/13 05:31:34;;;;;;;19.58;11.52;;;19.80;99.90;;;;;;5072364;28;20525;-71
2023/09/13 05:34:00;;;;;;;18.45;10.82;;;19.80;99.90;;;;;;5071404;28;20029;-71
2023/09/13 05:36:26;;;;;;;16.85;11.15;;;19.80;99.90;;;;;;5071368;28;20054;-70
2023/09/13 05:38:51;;;;;;;15.15;10.65;;;19.80;99.90;;;;;;5072106;28;20016;-71
2023/09/13 05:41:18;;;;;;;15.80;9.98;;;19.80;99.90;;;;;;5078396;28;20355;-70
2023/09/13 05:43:44;;;;;;;16.65;10.80;;;19.90;99.90;;;;;;5092362;28;20514;-72
2023/09/13 05:46:10;;;;;;;15.60;10.18;;;19.90;99.90;;;;;;5092840;28;20099;-71
2023/09/13 05:48:36;;;;;;;17.30;10.98;;;20.00;99.90;;;;;;5091951;28;20091;-70
2023/09/13 05:51:03;;;;;;;16.45;10.18;;;19.90;99.90;;;;;;5092482;28;20055;-70
2023/09/13 05:53:32;;;;;;;15.35;8.77;;;19.80;99.90;;;;;;5091814;28;20024;-70
2023/09/13 05:55:58;;;;;;;14.82;9.40;;;19.90;99.90;;;;;;5092207;28;20094;-70
2023/09/13 05:58:24;;;;;;;13.38;8.65;;;19.90;99.90;;;;;;5091972;28;20446;-71
2023/09/13 06:00:51;;;;;;;14.00;9.80;;;20.00;99.90;;;;;;5092208;28;20020;-73
2023/09/13 06:03:17;;;;;;;17.35;9.68;;;20.00;99.90;;;;;;5092060;28;20020;-71
2023/09/13 06:05:44;;;;;;;14.43;9.23;;;20.00;99.90;;;;;;5092069;28;20042;-70
2023/09/13 06:08:10;;;;;;;16.65;9.63;;;20.10;99.90;;;;;;5092012;28;20052;-70
2023/09/13 06:10:35;;;;;;;15.27;9.02;;;20.20;99.90;;;;;;5091975;28;20115;-71
2023/09/13 06:13:01;;;;;;;12.70;8.25;;;20.20;99.90;;;;;;5091906;28;20032;-74
2023/09/13 06:15:27;;;;;;;14.57;8.75;;;20.30;99.90;;;;;;5092006;28;20034;-74
2023/09/13 06:17:53;;;;;;;10.88;8.07;;;20.20;99.90;;;;;;5091851;28;20030;-72
2023/09/13 06:20:19;;;;;;;10.82;7.68;;;20.20;99.90;;;;;;5090934;28;20115;-73
2023/09/13 06:22:45;;;;;;;10.60;8.27;;;20.20;99.90;;;;;;5090828;28;20098;-73
2023/09/13 06:25:10;;;;;;;12.93;9.30;;;20.20;99.90;;;;;;5091966;28;20035;-72
2023/09/13 06:27:36;;;;;;;10.95;8.52;;;20.20;99.90;;;;;;5091771;28;20120;-72
2023/09/13 06:30:02;;;;;;;12.07;8.98;;;20.30;99.90;;;;;;5091750;28;20031;-72
2023/09/13 06:32:28;;;;;;;14.73;10.05;;;20.40;99.90;;;;;;5090970;28;20458;-74
2023/09/13 06:34:58;;;;;;;11.30;9.13;;;20.40;99.90;;;;;;5090920;28;20215;-74
2023/09/13 06:37:25;;;;;;;13.02;9.52;;;20.30;99.90;;;;;;5091574;28;20029;-73
2023/09/13 06:39:51;;;;;;;18.35;10.20;;;20.20;99.90;;;;;;5091457;28;20034;-74
2023/09/13 06:42:17;;;;;;;13.82;10.32;;;20.30;99.90;;;;;;5091294;28;20024;-73
2023/09/13 06:44:43;;;;;;;13.88;9.20;;;20.40;99.90;;;;;;5090381;28;20039;-72
2023/09/13 06:47:09;;;;;;;15.20;10.40;;;20.50;99.90;;;;;;5091204;28;20100;-72
2023/09/13 06:49:35;;;;;;;15.02;9.52;;;20.60;99.90;;;;;;5091424;28;20036;-72
2023/09/13 06:52:01;;;;;;;15.05;8.88;;;20.50;99.90;;;;;;5091455;28;20470;-72
2023/09/13 06:54:27;;;;;;;12.75;9.50;;;20.60;99.90;;;;;;5091155;28;20032;-73
2023/09/13 06:56:53;;;;;;;16.63;10.88;;;20.60;99.90;;;;;;5091527;28;20358;-73
2023/09/13 06:59:19;;;;;;;14.13;10.68;;;20.60;99.90;;;;;;5091178;28;20051;-72
2023/09/13 07:01:46;;;;;;;15.30;10.43;;;20.70;99.90;;;;;;5090263;28;20050;-72
2023/09/13 07:04:13;;;;;;;15.15;10.85;;;20.60;99.90;;;;;;5091551;28;20035;-72
2023/09/13 07:06:39;;;;;;;17.23;10.60;;;20.60;99.90;;;;;;5091016;28;20509;-72
2023/09/13 07:09:05;;;;;;;15.95;10.77;;;20.60;99.90;;;;;;5091228;28;20031;-71
2023/09/13 07:11:30;;;;;;;17.52;11.38;;;20.70;99.90;;;;;;5090450;28;20032;-71
2023/09/13 07:13:56;;;;;;;16.60;11.10;;;20.70;99.90;;;;;;5091022;28;20024;-72
2023/09/13 07:16:22;;;;;;;15.77;11.18;;;20.70;99.90;;;;;;5091099;28;20385;-70
2023/09/13 07:18:47;;;;;;;18.02;10.55;;;20.80;99.90;;;;;;5091048;28;20024;-73
2023/09/13 07:21:13;;;;;;;15.40;10.65;;;20.70;99.90;;;;;;5091214;28;20032;-71
2023/09/13 07:23:38;;;;;;;18.90;11.10;;;20.80;99.90;;;;;;5090900;28;20442;-71
2023/09/13 07:26:04;;;;;;;16.60;11.18;;;20.80;99.90;;;;;;5091083;28;20093;-69
2023/09/13 07:28:30;;;;;;;15.75;11.77;;;20.70;99.90;;;;;;5091372;28;20030;-71
2023/09/13 07:30:55;;;;;;;13.23;10.10;;;20.80;99.90;;;;;;5090019;28;20020;-69
2023/09/13 07:33:21;;;;;;;13.35;10.05;;;20.80;99.90;;;;;;5091273;28;20051;-70
2023/09/13 07:35:47;;;;;;;11.85;9.85;;;20.70;99.90;;;;;;5090851;28;20494;-70
2023/09/13 07:38:12;;;;;;;11.63;9.30;;;20.80;99.90;;;;;;5089994;28;20036;-72
2023/09/13 07:40:41;;;;;;;14.32;9.43;;;20.90;99.90;;;;;;5089925;28;20021;-70
2023/09/13 07:43:07;;;;;;;10.57;7.72;;;20.80;99.90;;;;;;5089482;28;20115;-70
2023/09/13 07:45:34;;;;;;;9.60;7.60;;;20.70;99.90;;;;;;5089913;28;20143;-74
2023/09/13 07:48:00;;;;;;;9.60;7.10;;;20.70;99.90;;;;;;5094446;28;20020;-73
2023/09/13 07:50:32;;;;;;;9.88;7.72;;;20.80;99.90;;;;;;5094816;28;20028;-69
2023/09/13 07:52:58;;;;;;;8.90;6.78;;;20.90;99.90;;;;;;5094558;28;20028;-71
2023/09/13 07:55:25;;;;;;;8.13;6.50;;;21.10;99.90;;;;;;5094416;28;20438;-70
2023/09/13 07:57:51;;;;;;;9.68;6.32;;;21.00;99.90;;;;;;5094578;28;20020;-72
2023/09/13 08:00:17;;;;;;;13.32;5.88;;;21.00;99.90;;;;;;5094214;28;20020;-70
2023/09/13 08:02:44;;;;;;;9.18;6.25;;;20.90;99.90;;;;;;5094453;28;20035;-71
2023/09/13 08:05:09;;;;;;;10.32;6.97;;;21.00;99.90;;;;;;5093157;28;20028;-71
2023/09/13 08:07:35;;;;;;;7.68;6.28;;;20.90;99.90;;;;;;5092825;28;20059;-71
2023/09/13 08:10:02;;;;;;;8.20;6.72;;;20.80;99.90;;;;;;5094592;28;20027;-71
2023/09/13 08:12:28;;;;;;;9.82;7.22;;;20.90;99.90;;;;;;5094412;28;20024;-72
2023/09/13 08:14:54;;;;;;;10.77;7.05;;;20.90;99.90;;;;;;5094030;28;20185;-72
2023/09/13 08:17:20;;;;;;;8.85;6.25;;;21.00;99.90;;;;;;5094123;28;20617;-74
2023/09/13 08:19:49;;;;;;;8.43;6.53;;;20.80;99.90;;;;;;5093936;28;20085;-71
2023/09/13 08:22:14;;;;;;;9.07;6.47;;;20.90;99.90;;;;;;5094039;28;20098;-69
2023/09/13 08:24:40;;;;;;;7.20;5.72;;;20.80;99.90;;;;;;5093804;28;20488;-70
2023/09/13 08:27:06;;;;;;;8.73;6.60;;;20.90;99.90;;;;;;5093845;28;20027;-72
2023/09/13 08:29:32;;;;;;;7.90;5.43;;;20.90;99.90;;;;;;5094055;28;20347;-74
2023/09/13 08:31:57;;;;;;;7.60;5.07;;;21.00;99.90;;;;;;5093752;28;20031;-71
2023/09/13 08:34:23;;;;;;;8.27;5.43;;;21.20;99.90;;;;;;5093846;28;20039;-71
2023/09/13 08:36:53;;;;;;;6.95;5.07;;;21.20;99.90;;;;;;5092724;28;20035;-71
2023/09/13 08:39:19;;;;;;;8.43;5.95;;;21.30;99.90;;;;;;5093445;28;20020;-73
2023/09/13 08:41:50;;;;;;;7.90;5.75;;;21.20;99.90;;;;;;5092659;28;20016;-71
2023/09/13 08:44:22;;;;;;;7.60;5.22;;;21.20;99.90;;;;;;5093406;28;20355;-72
2023/09/13 08:46:55;;;;;;;8.15;5.40;;;21.30;99.90;;;;;;5093491;28;20059;-72
2023/09/13 08:49:22;;;;;;;7.80;5.55;;;21.30;99.90;;;;;;5093891;28;20024;-71
2023/09/13 08:51:48;;;;;;;7.13;5.18;;;21.50;99.90;;;;;;5093242;28;20093;-72
2023/09/13 08:54:16;;;;;;;9.48;6.13;;;21.60;99.90;;;;;;5092203;28;20505;-72
2023/09/13 08:56:42;;;;;;;8.20;5.80;;;21.70;99.90;;;;;;5093363;28;20371;-74
2023/09/13 08:59:17;;;;;;;5.32;4.72;;;21.70;99.90;;;;;;5092381;28;20024;-73
2023/09/13 09:01:51;;;;;;;6.53;5.15;;;21.70;99.90;;;;;;5093684;28;20394;-73
2023/09/13 09:04:18;;;;;;;5.90;4.57;;;21.70;99.90;;;;;;5093075;28;20050;-73
2023/09/13 09:06:45;;;;;;;7.23;5.10;;;21.80;99.90;;;;;;5093108;28;20043;-73
2023/09/13 09:09:13;;;;;;;8.13;5.13;;;21.60;99.90;;;;;;5092527;28;20043;-73
2023/09/13 09:11:41;;;;;;;;;;;21.60;99.90;;;;;;5093677;28;20028;-73
2023/09/13 09:14:08;;;;;;;5.57;4.85;;;21.60;99.90;;;;;;5093175;28;20361;-74
2023/09/13 09:16:35;;;;;;;8.10;5.60;;;21.70;99.90;;;;;;5093230;28;20063;-71
2023/09/13 09:19:01;;;;;;;8.48;5.28;;;21.70;99.90;;;;;;5092202;28;20028;-71
2023/09/13 09:21:29;;;;;;;6.75;5.40;;;21.80;99.90;;;;;;5092863;28;20084;-72
2023/09/13 09:23:56;;;;;;;6.68;4.10;;;21.70;99.90;;;;;;5093530;28;20027;-71
2023/09/13 09:26:22;;;;;;;7.22;4.65;;;21.60;99.90;;;;;;5092784;28;20051;-70
2023/09/13 09:28:48;;;;;;;4.88;3.97;;;21.50;99.90;;;;;;5092649;28;20166;-71
2023/09/13 09:31:16;;;;;;;6.43;4.32;;;21.40;99.90;;;;;;5092637;28;20161;-73
2023/09/13 09:33:42;;;;;;;12.07;6.80;;;21.30;99.90;;;;;;5092731;28;20081;-72
2023/09/13 09:36:10;;;;;;;12.52;7.75;;;21.30;99.90;;;;;;5092534;28;20096;-70
2023/09/13 09:38:35;;;;;;;7.60;5.00;;;21.10;99.90;;;;;;5091285;28;20085;-71
2023/09/13 09:41:03;;;;;;;6.60;4.80;;;20.90;99.90;;;;;;5092588;28;20032;-73
2023/09/13 09:43:31;;;;;;;6.30;4.60;;;20.80;99.90;;;;;;5092632;28;20112;-72
2023/09/13 09:45:57;;;;;;;6.35;3.97;;;20.70;99.90;;;;;;5092415;28;20153;-72
2023/09/13 09:48:23;;;;;;;5.25;3.67;;;20.90;99.90;;;;;;5092460;28;20028;-72
2023/09/13 09:50:52;;;;;;;9.63;3.75;;;20.90;99.90;;;;;;5091359;28;20168;-73
2023/09/13 09:53:21;;;;;;;4.03;3.30;;;20.80;99.90;;;;;;5091178;28;20083;-70
2023/09/13 09:55:47;;;;;;;3.78;3.20;;;20.80;99.90;;;;;;5092111;28;20315;-72
2023/09/13 09:58:13;;;;;;;6.07;4.05;;;20.80;99.90;;;;;;5092106;28;20027;-73
2023/09/13 10:00:47;;;;;;;4.97;3.10;;;20.80;99.90;;;;;;5092300;28;20027;-73
2023/09/13 10:03:17;;;;;;;2.65;2.42;;;20.70;99.90;;;;;;5091937;28;20020;-72
2023/09/13 10:06:10;;;;;;;5.55;2.90;;;20.80;99.90;;;;;;5090869;28;20118;-73
2023/09/13 10:08:45;;;;;;;2.95;2.33;;;20.70;99.90;;;;;;5086284;28;20130;-72
2023/09/13 10:11:13;;;;;;;4.97;3.03;;;20.60;99.90;;;;;;5092332;28;20020;-71
2023/09/13 10:13:40;;;;;;;6.22;4.10;;;20.50;99.90;;;;;;5092017;28;20024;-72
2023/09/13 10:16:08;;;;;;;10.68;5.00;;;20.30;99.90;;;;;;5092467;28;20051;-71
2023/09/13 10:18:41;;;;;;;6.82;5.15;;;20.10;99.90;;;;;;5091936;28;20016;-72
2023/09/13 10:21:08;;;;;;;9.63;4.45;;;20.10;99.90;;;;;;5091967;28;20024;-71
2023/09/13 10:23:43;;;;;;;5.90;5.13;;;20.20;99.90;;;;;;5091206;28;20032;-72
2023/09/13 10:26:10;;;;;;;6.10;5.00;;;20.20;99.90;;;;;;5090849;28;20108;-72
2023/09/13 10:28:43;;;;;;;6.35;5.32;;;20.20;99.90;;;;;;5092033;28;20062;-71
2023/09/13 10:31:27;;;;;;;7.30;5.18;;;20.20;99.90;;;;;;5092156;28;20400;-69
2023/09/13 10:33:58;;;;;;;6.28;5.28;;;20.20;99.90;;;;;;5091916;28;20085;-69
2023/09/13 10:36:32;;;;;;;8.45;5.82;;;20.30;99.90;;;;;;5091416;28;20021;-69
2023/09/13 10:39:09;;;;;;;8.10;5.97;;;20.20;99.90;;;;;;5091613;28;20024;-69
2023/09/13 10:41:42;;;;;;;5.95;4.75;;;20.20;99.90;;;;;;5091540;28;20024;-71
2023/09/13 10:44:10;;;;;;;8.02;5.00;;;20.10;99.90;;;;;;5091372;28;20036;-71
2023/09/13 10:46:37;;;;;;;13.00;5.90;;;20.10;99.90;;;;;;5091697;28;20388;-71
2023/09/13 10:49:03;;;;;;;9.50;5.70;;;20.10;99.90;;;;;;5090530;28;20458;-74
2023/09/13 10:51:31;;;;;;;10.35;6.10;;;20.10;99.90;;;;;;5090663;28;20360;-72
2023/09/13 10:54:00;;;;;;;10.40;6.25;;;20.00;99.90;;;;;;5091453;28;20466;-72
2023/09/13 10:56:29;;;;;;;6.10;5.03;;;20.00;99.90;;;;;;5091540;28;20024;-72
2023/09/13 10:58:58;;;;;;;7.15;4.45;;;20.10;99.90;;;;;;5090852;28;20306;-71
2023/09/13 11:01:26;;;;;;;9.00;5.22;;;20.20;99.90;;;;;;5091408;28;20454;-71
2023/09/13 11:03:52;;;;;;;12.52;8.07;;;20.10;99.90;;;;;;5090262;28;20028;-71
2023/09/13 11:06:20;;;;;;;8.75;6.78;;;20.10;99.90;;;;;;5091301;28;20327;-71
2023/09/13 11:08:45;;;;;;;6.78;4.50;;;20.00;99.90;;;;;;5091108;28;20100;-72
2023/09/13 11:11:19;;;;;;;5.65;3.92;;;20.00;99.90;;;;;;5091242;28;20035;-70
2023/09/13 11:13:52;;;;;;;10.30;4.38;;;19.90;99.90;;;;;;5091562;28;20060;-71
2023/09/13 11:16:18;;;;;;;13.27;8.35;;;19.90;99.90;;;;;;5091075;28;20020;-71
2023/09/13 11:18:46;;;;;;;11.23;7.85;;;19.80;99.90;;;;;;5090122;28;20020;-71
2023/09/13 11:21:26;;;;;;;4.80;3.40;;;19.80;99.90;;;;;;5092692;28;20016;-71
2023/09/13 11:23:53;;;;;;;4.75;3.20;;;19.90;99.90;;;;;;5095459;28;20047;-71
2023/09/13 11:27:04;;;;;;;7.15;3.28;;;19.90;99.90;;;;;;5094094;28;20030;-71
2023/09/13 11:29:29;;;;;;;10.80;3.60;;;19.80;99.90;;;;;;5092723;28;20032;-72
2023/09/13 11:32:00;;;;;;;9.45;4.40;;;19.80;99.90;;;;;;5095053;28;20017;-71
2023/09/13 11:34:26;;;;;;;9.88;5.32;;;19.80;99.90;;;;;;5094779;28;20508;-71
2023/09/13 11:37:06;;;;;;;10.35;5.70;;;19.60;99.90;;;;;;5095178;28;20349;-72
2023/09/13 11:39:32;;;;;;;12.15;5.30;;;19.60;99.90;;;;;;5094876;28;20095;-73
2023/09/13 11:41:58;;;;;;;10.30;4.93;;;19.60;99.90;;;;;;5094473;28;20108;-73
2023/09/13 11:44:25;;;;;;;12.18;5.60;;;19.60;99.90;;;;;;5094756;28;20032;-74
2023/09/13 11:46:52;;;;;;;11.43;5.43;;;19.60;99.90;;;;;;5093556;28;20046;-72
2023/09/13 11:49:23;;;;;;;11.50;5.30;;;19.60;99.90;;;;;;5094521;28;20143;-71
2023/09/13 11:51:59;;;;;;;12.18;5.55;;;19.50;99.90;;;;;;5094969;28;20111;-69
2023/09/13 11:54:26;;;;;;;11.55;5.32;;;19.50;99.90;;;;;;5094293;28;20050;-71
2023/09/13 11:56:55;;;;;;;13.63;5.43;;;19.40;99.90;;;;;;5094422;28;20024;-71
2023/09/13 11:59:30;;;;;;;11.27;5.63;;;19.40;99.90;;;;;;5094679;28;20032;-71
2023/09/13 12:01:57;;;;;;;11.57;5.15;;;19.40;99.90;;;;;;5094196;28;20055;-72
2023/09/13 12:04:26;;;;;;;12.93;5.40;;;19.40;99.90;;;;;;5094258;28;20016;-72
2023/09/13 12:06:54;;;;;;;12.40;4.68;;;19.30;99.90;;;;;;5094195;28;20040;-69
2023/09/13 12:09:21;;;;;;;;;;;19.30;99.90;;;;;;5094597;28;20024;-70
2023/09/13 12:11:50;;;;;;;15.68;5.35;;;19.20;99.90;;;;;;5094495;28;19908;-73
2023/09/13 12:14:22;;;;;;;12.40;5.03;;;19.30;99.90;;;;;;5093966;28;20435;-74
2023/09/13 12:16:51;;;;;;;9.68;4.85;;;19.10;99.90;;;;;;5093993;28;20378;-71
2023/09/13 12:19:18;;;;;;;14.98;4.32;;;19.00;99.90;;;;;;5094376;28;20022;-71
2023/09/13 12:21:45;;;;;;;10.10;5.22;;;19.00;99.90;;;;;;5093006;28;20024;-69
2023/09/13 12:24:23;;;;;;;10.77;5.07;;;18.70;99.90;;;;;;5091730;28;20177;-69
2023/09/13 12:26:53;;;;;;;11.90;5.38;;;18.60;99.90;;;;;;5093803;28;20111;-70
2023/09/13 12:29:18;;;;;;;14.80;6.15;;;18.80;99.90;;;;;;5094208;28;20431;-69
2023/09/13 12:31:44;;;;;;;14.13;5.57;;;18.90;99.90;;;;;;5092658;28;20410;-69
2023/09/13 12:34:11;;;;;;;9.65;5.28;;;18.90;99.90;;;;;;5086659;28;20020;-69
2023/09/13 12:36:38;;;;;;;10.65;4.13;;;19.00;99.90;;;;;;5073850;28;20025;-71
2023/09/13 12:39:13;;;;;;;25.50;5.03;;;19.00;99.90;;;;;;5073805;28;20017;-70
2023/09/13 12:41:39;;;;;;;13.73;4.70;;;19.00;99.90;;;;;;5072529;28;20292;-69